createdAt,value
2023-04-23T00:00:19.136Z,14.23
2023-04-23T00:02:50.031Z,14.19
2023-04-23T00:05:21.480Z,14.17
2023-04-23T00:07:50.034Z,14.14
2023-04-23T00:10:19.174Z,14.13
2023-04-23T00:12:47.978Z,14.11
2023-04-23T00:15:17.264Z,14.08
2023-04-23T00:17:45.642Z,14.10
2023-04-23T00:20:14.042Z,14.13
2023-04-23T00:22:44.250Z,14.16
2023-04-23T00:25:12.646Z,14.16
2023-04-23T00:27:41.095Z,14.10
2023-04-23T00:30:10.131Z,14.10
2023-04-23T00:32:38.595Z,14.09
2023-04-23T00:35:08.159Z,14.04
2023-04-23T00:37:36.663Z,14.06
2023-04-23T00:40:08.054Z,14.03
2023-04-23T00:42:37.545Z,13.98
2023-04-23T00:45:08.602Z,14.01
2023-04-23T00:47:37.468Z,13.97
2023-04-23T00:50:08.060Z,13.96
2023-04-23T00:52:36.574Z,13.97
2023-04-23T00:55:08.458Z,13.95
2023-04-23T00:57:37.450Z,13.98
2023-04-23T01:00:07.433Z,13.96
2023-04-23T01:02:38.481Z,13.93
2023-04-23T01:05:10.593Z,13.89
2023-04-23T01:07:39.355Z,13.92
2023-04-23T01:10:11.018Z,13.92
2023-04-23T01:12:39.436Z,13.96
2023-04-23T01:15:09.228Z,13.95
2023-04-23T01:17:38.434Z,13.93
2023-04-23T01:20:08.540Z,13.97
2023-04-23T01:22:39.260Z,13.99
2023-04-23T01:25:10.273Z,14.02
2023-04-23T01:27:39.590Z,14.02
2023-04-23T01:30:09.371Z,14.02
2023-04-23T01:32:38.575Z,14.01
2023-04-23T01:35:08.401Z,14.04
2023-04-23T01:37:39.553Z,14.03
2023-04-23T01:40:10.802Z,14.04
2023-04-23T01:42:39.753Z,14.09
2023-04-23T01:45:09.738Z,14.11
2023-04-23T01:47:38.156Z,14.12
2023-04-23T01:50:07.729Z,14.13
2023-04-23T01:52:36.137Z,14.12
2023-04-23T01:55:06.581Z,14.10
2023-04-23T01:57:34.960Z,14.11
2023-04-23T02:00:08.458Z,14.14
2023-04-23T02:02:37.571Z,14.16
2023-04-23T02:05:10.092Z,14.16
2023-04-23T02:07:38.513Z,14.19
2023-04-23T02:10:09.960Z,14.18
2023-04-23T02:12:38.710Z,14.15
2023-04-23T02:15:08.633Z,14.09
2023-04-23T02:17:37.023Z,13.92
2023-04-23T02:20:09.779Z,13.77
2023-04-23T02:22:39.189Z,13.55
2023-04-23T02:25:10.615Z,13.43
2023-04-23T02:27:38.998Z,13.32
2023-04-23T02:30:09.301Z,13.18
2023-04-23T02:32:38.242Z,12.99
2023-04-23T02:35:07.952Z,12.81
2023-04-23T02:37:37.120Z,12.75
2023-04-23T02:40:06.927Z,12.64
2023-04-23T02:42:36.763Z,12.60
2023-04-23T02:45:05.850Z,12.51
2023-04-23T02:47:34.472Z,12.48
2023-04-23T02:50:05.932Z,12.48
2023-04-23T02:52:34.680Z,12.52
2023-04-23T02:55:03.775Z,12.55
2023-04-23T02:57:32.124Z,12.62
2023-04-23T03:00:02.010Z,12.63
2023-04-23T03:02:30.464Z,12.64
2023-04-23T03:04:58.841Z,12.63
2023-04-23T03:07:27.239Z,12.59
2023-04-23T03:09:55.619Z,12.65
2023-04-23T03:12:23.993Z,12.72
2023-04-23T03:14:52.617Z,12.78
2023-04-23T03:17:22.362Z,12.88
2023-04-23T03:19:50.708Z,12.90
2023-04-23T03:22:19.040Z,12.86
2023-04-23T03:24:47.367Z,12.82
2023-04-23T03:27:15.913Z,12.76
2023-04-23T03:29:44.287Z,12.74
2023-04-23T03:32:12.656Z,12.68
2023-04-23T03:34:42.616Z,12.64
2023-04-23T03:37:11.409Z,12.59
2023-04-23T03:39:39.785Z,12.53
2023-04-23T03:42:08.199Z,12.54
2023-04-23T03:44:36.528Z,12.47
2023-04-23T03:47:05.067Z,12.41
2023-04-23T03:49:33.386Z,12.37
2023-04-23T03:52:03.217Z,12.32
2023-04-23T03:54:31.586Z,12.27
2023-04-23T03:57:00.355Z,12.23
2023-04-23T03:59:28.725Z,12.21
2023-04-23T04:01:57.071Z,12.21
2023-04-23T04:04:26.086Z,12.23
2023-04-23T04:06:54.653Z,12.25
2023-04-23T04:09:24.399Z,12.23
2023-04-23T04:11:53.848Z,12.22
2023-04-23T04:14:23.388Z,12.20
2023-04-23T04:16:51.770Z,12.21
2023-04-23T04:19:20.130Z,12.34
2023-04-23T04:21:48.835Z,12.43
2023-04-23T04:24:17.337Z,12.58
2023-04-23T04:26:47.622Z,12.78
2023-04-23T04:29:16.167Z,12.95
2023-04-23T04:31:44.617Z,13.08
2023-04-23T04:34:14.758Z,13.18
2023-04-23T04:36:43.398Z,13.23
2023-04-23T04:39:13.542Z,13.32
2023-04-23T04:41:42.806Z,13.33
2023-04-23T04:44:14.256Z,13.31
2023-04-23T04:46:42.991Z,13.27
2023-04-23T04:49:12.049Z,13.22
2023-04-23T04:51:42.241Z,13.19
2023-04-23T04:54:10.600Z,13.19
2023-04-23T04:56:39.084Z,13.25
2023-04-23T04:59:07.443Z,13.30
2023-04-23T05:01:37.496Z,13.43
2023-04-23T05:04:06.298Z,13.44
2023-04-23T05:06:34.999Z,13.43
2023-04-23T05:09:03.864Z,13.43
2023-04-23T05:11:32.939Z,13.44
2023-04-23T05:14:01.300Z,13.44
2023-04-23T05:16:29.665Z,13.44
2023-04-23T05:18:59.409Z,13.43
2023-04-23T05:21:28.122Z,13.51
2023-04-23T05:23:56.752Z,13.56
2023-04-23T05:26:25.052Z,13.55
2023-04-23T05:28:53.407Z,13.52
2023-04-23T05:31:21.902Z,13.52
2023-04-23T05:33:51.002Z,13.49
2023-04-23T05:36:20.947Z,13.49
2023-04-23T05:38:49.573Z,13.50
2023-04-23T05:41:17.952Z,13.54
2023-04-23T05:43:46.270Z,13.49
2023-04-23T05:46:14.667Z,13.47
2023-04-23T05:48:43.027Z,13.50
2023-04-23T05:51:12.218Z,13.56
2023-04-23T05:53:41.930Z,13.59
2023-04-23T05:56:10.345Z,13.61
2023-04-23T05:58:38.872Z,13.69
2023-04-23T06:01:07.434Z,13.82
2023-04-23T06:03:37.036Z,13.73
2023-04-23T06:06:05.642Z,13.76
2023-04-23T06:08:33.998Z,13.80
2023-04-23T06:11:03.960Z,13.85
2023-04-23T06:13:32.343Z,13.87
2023-04-23T06:16:00.749Z,13.90
2023-04-23T06:18:29.095Z,13.92
2023-04-23T06:20:57.674Z,14.01
2023-04-23T06:23:26.114Z,14.05
2023-04-23T06:25:54.421Z,14.03
2023-04-23T06:28:24.230Z,14.10
2023-04-23T06:30:52.685Z,14.09
2023-04-23T06:33:21.044Z,14.16
2023-04-23T06:35:49.354Z,14.18
2023-04-23T06:38:18.636Z,14.18
2023-04-23T06:40:47.098Z,14.24
2023-04-23T06:43:15.664Z,14.30
2023-04-23T06:45:45.549Z,14.38
2023-04-23T06:48:14.057Z,14.43
2023-04-23T06:50:42.464Z,14.37
2023-04-23T06:53:10.816Z,14.34
2023-04-23T06:55:39.219Z,14.46
2023-04-23T06:58:08.041Z,14.44
2023-04-23T07:00:36.620Z,14.37
2023-04-23T07:03:06.736Z,14.37
2023-04-23T07:05:35.289Z,14.29
2023-04-23T07:08:03.727Z,14.28
2023-04-23T07:10:32.085Z,14.29
2023-04-23T07:13:00.687Z,14.28
2023-04-23T07:15:29.211Z,14.08
2023-04-23T07:17:57.755Z,14.03
2023-04-23T07:20:27.478Z,13.92
2023-04-23T07:22:55.856Z,13.78
2023-04-23T07:25:25.457Z,13.65
2023-04-23T07:27:54.280Z,13.61
2023-04-23T07:30:24.109Z,13.47
2023-04-23T07:32:52.604Z,13.45
2023-04-23T07:35:21.068Z,13.43
2023-04-23T07:37:53.815Z,13.29
2023-04-23T07:40:23.088Z,13.17
2023-04-23T07:42:52.103Z,13.23
2023-04-23T07:45:20.823Z,13.17
2023-04-23T07:47:49.465Z,13.16
2023-04-23T07:50:17.828Z,13.08
2023-04-23T07:52:46.239Z,13.04
2023-04-23T07:55:17.054Z,12.99
2023-04-23T07:57:45.446Z,12.97
2023-04-23T08:00:14.982Z,12.97
2023-04-23T08:02:43.789Z,12.98
2023-04-23T08:05:12.568Z,13.00
2023-04-23T08:07:41.015Z,12.97
2023-04-23T08:10:10.776Z,13.00
2023-04-23T08:12:41.018Z,13.01
2023-04-23T08:15:10.722Z,13.03
2023-04-23T08:17:39.124Z,13.07
2023-04-23T08:20:09.081Z,13.01
2023-04-23T08:22:37.511Z,13.01
2023-04-23T08:25:06.816Z,12.99
2023-04-23T08:27:35.488Z,13.03
2023-04-23T08:30:06.667Z,13.09
2023-04-23T08:32:35.156Z,13.14
2023-04-23T08:35:03.915Z,13.21
2023-04-23T08:37:32.246Z,13.31
2023-04-23T08:40:01.377Z,13.31
2023-04-23T08:42:38.352Z,13.34
2023-04-23T08:45:09.338Z,13.40
2023-04-23T08:47:43.140Z,13.48
2023-04-23T08:50:13.129Z,13.49
2023-04-23T08:52:42.907Z,13.58
2023-04-23T08:55:15.834Z,13.74
2023-04-23T08:57:44.211Z,13.79
2023-04-23T09:00:16.243Z,13.82
2023-04-23T09:02:46.507Z,13.84
2023-04-23T09:05:16.054Z,13.90
2023-04-23T09:07:44.558Z,13.88
2023-04-23T09:10:16.888Z,13.84
2023-04-23T09:12:48.081Z,13.78
2023-04-23T09:15:18.657Z,13.78
2023-04-23T09:17:49.839Z,13.67
2023-04-23T09:20:18.290Z,13.72
2023-04-23T09:22:48.319Z,13.67
2023-04-23T09:25:18.952Z,13.74
2023-04-23T09:27:47.746Z,13.63
2023-04-23T09:30:18.344Z,13.56
2023-04-23T09:32:48.154Z,13.51
2023-04-23T09:35:19.925Z,13.50
2023-04-23T09:37:49.922Z,13.41
2023-04-23T09:40:20.073Z,13.39
2023-04-23T09:42:49.969Z,13.28
2023-04-23T09:45:20.109Z,13.17
2023-04-23T09:47:52.206Z,13.11
2023-04-23T09:50:21.151Z,13.04
2023-04-23T09:52:56.290Z,12.93
2023-04-23T09:55:31.046Z,12.82
2023-04-23T09:57:59.911Z,12.84
2023-04-23T10:00:34.428Z,12.68
2023-04-23T10:03:03.146Z,12.77
2023-04-23T10:05:49.736Z,12.80
2023-04-23T10:08:22.668Z,12.76
2023-04-23T10:11:05.984Z,12.74
2023-04-23T10:13:39.099Z,12.82
2023-04-23T10:16:21.615Z,12.75
2023-04-23T10:18:55.177Z,12.64
2023-04-23T10:21:33.950Z,12.62
2023-04-23T10:24:10.874Z,12.57
2023-04-23T10:26:43.117Z,12.44
2023-04-23T10:29:16.383Z,12.41
2023-04-23T10:31:47.375Z,12.48
2023-04-23T10:34:16.650Z,12.53
2023-04-23T10:36:45.104Z,12.59
2023-04-23T10:39:20.851Z,12.65
2023-04-23T10:41:56.856Z,12.61
2023-04-23T10:44:57.379Z,12.74
2023-04-23T10:47:23.675Z,12.80
2023-04-23T10:49:52.861Z,12.88
2023-04-23T10:52:23.778Z,12.95
2023-04-23T10:54:59.990Z,13.06
2023-04-23T10:57:28.725Z,13.17
2023-04-23T10:59:58.851Z,13.31
2023-04-23T11:02:44.764Z,13.49
2023-04-23T11:05:13.278Z,13.57
2023-04-23T11:07:41.733Z,13.68
2023-04-23T11:10:14.092Z,13.71
2023-04-23T11:12:45.393Z,13.75
2023-04-23T11:15:16.827Z,13.86
2023-04-23T11:18:03.201Z,13.79
2023-04-23T11:20:31.719Z,13.80
2023-04-23T11:23:00.191Z,13.85
2023-04-23T11:25:30.403Z,13.75
2023-04-23T11:27:59.581Z,13.77
2023-04-23T11:30:30.047Z,13.93
2023-04-23T11:33:00.388Z,14.10
2023-04-23T11:35:37.721Z,14.07
2023-04-23T11:38:09.948Z,14.13
2023-04-23T11:40:40.348Z,14.24
2023-04-23T11:43:09.546Z,14.26
2023-04-23T11:45:38.109Z,14.29
2023-04-23T11:48:07.745Z,14.25
2023-04-23T11:50:39.060Z,14.27
2023-04-23T11:53:08.925Z,14.54
2023-04-23T11:55:38.276Z,14.84
2023-04-23T11:58:06.684Z,15.05
2023-04-23T12:00:35.000Z,15.28
2023-04-23T12:03:05.872Z,15.41
2023-04-23T12:05:36.887Z,15.68
2023-04-23T12:08:11.053Z,15.93
2023-04-23T12:10:47.466Z,16.11
2023-04-23T12:13:17.103Z,16.11
2023-04-23T12:15:50.193Z,16.01
2023-04-23T12:18:20.001Z,16.24
2023-04-23T12:20:48.334Z,16.25
2023-04-23T12:23:18.059Z,16.00
2023-04-23T12:25:46.649Z,15.90
2023-04-23T12:28:15.036Z,15.84
2023-04-23T12:30:45.323Z,15.81
2023-04-23T12:33:14.567Z,15.84
2023-04-23T12:35:44.520Z,16.05
2023-04-23T12:38:24.868Z,16.28
2023-04-23T12:40:53.454Z,16.32
2023-04-23T12:43:22.174Z,16.83
2023-04-23T12:45:51.238Z,17.43
2023-04-23T12:48:19.890Z,17.80
2023-04-23T12:50:49.000Z,18.03
2023-04-23T12:53:17.375Z,18.44
2023-04-23T12:55:48.421Z,17.93
2023-04-23T12:58:16.942Z,18.40
2023-04-23T13:00:45.932Z,18.57
2023-04-23T13:03:15.651Z,18.19
2023-04-23T13:05:44.133Z,18.42
2023-04-23T13:08:12.545Z,18.94
2023-04-23T13:10:40.895Z,19.35
2023-04-23T13:13:10.630Z,18.90
2023-04-23T13:15:39.013Z,18.85
2023-04-23T13:18:07.936Z,19.14
2023-04-23T13:20:36.306Z,18.86
2023-04-23T13:23:04.693Z,19.02
2023-04-23T13:25:33.111Z,19.07
2023-04-23T13:28:01.788Z,19.38
2023-04-23T13:30:31.490Z,18.93
2023-04-23T13:32:59.891Z,19.10
2023-04-23T13:35:28.376Z,19.21
2023-04-23T13:37:56.868Z,18.75
2023-04-23T13:40:25.214Z,19.20
2023-04-23T13:42:55.006Z,19.15
2023-04-23T13:45:23.401Z,18.58
2023-04-23T13:47:53.533Z,18.65
2023-04-23T13:50:22.174Z,18.01
2023-04-23T13:52:50.488Z,17.74
2023-04-23T13:55:19.108Z,17.39
2023-04-23T13:57:47.451Z,17.36
2023-04-23T14:00:16.754Z,17.70
2023-04-23T14:02:45.485Z,17.78
2023-04-23T14:05:15.359Z,17.65
2023-04-23T14:07:43.717Z,17.93
2023-04-23T14:10:12.574Z,17.88
2023-04-23T14:12:41.150Z,17.64
2023-04-23T14:15:10.830Z,17.43
2023-04-23T14:17:40.637Z,17.93
2023-04-23T14:20:09.739Z,18.41
2023-04-23T14:22:39.683Z,18.03
2023-04-23T14:25:10.940Z,18.29
2023-04-23T14:27:42.084Z,18.20
2023-04-23T14:30:17.884Z,18.18
2023-04-23T14:32:49.329Z,18.57
2023-04-23T14:35:22.723Z,19.02
2023-04-23T14:37:59.092Z,19.15
2023-04-23T14:40:27.454Z,19.46
2023-04-23T14:42:59.237Z,19.39
2023-04-23T14:45:33.427Z,19.41
2023-04-23T14:48:01.832Z,19.57
2023-04-23T14:50:30.225Z,19.20
2023-04-23T14:53:00.009Z,18.84
2023-04-23T14:55:28.508Z,18.97
2023-04-23T14:57:56.974Z,18.71
2023-04-23T15:00:25.434Z,18.50
2023-04-23T15:02:54.146Z,18.84
2023-04-23T15:05:22.700Z,18.60
2023-04-23T15:07:51.856Z,18.51
2023-04-23T15:10:23.207Z,18.13
2023-04-23T15:12:56.852Z,18.54
2023-04-23T15:15:42.915Z,18.62
2023-04-23T15:18:12.760Z,18.83
2023-04-23T15:20:41.096Z,19.16
2023-04-23T15:23:10.305Z,19.32
2023-04-23T15:25:40.508Z,19.56
2023-04-23T15:28:09.127Z,19.39
2023-04-23T15:30:37.556Z,19.13
2023-04-23T15:33:05.936Z,19.52
2023-04-23T15:35:34.672Z,19.72
2023-04-23T15:38:03.725Z,20.00
2023-04-23T15:40:32.058Z,19.98
2023-04-23T15:43:01.842Z,19.94
2023-04-23T15:45:30.485Z,19.72
2023-04-23T15:47:59.021Z,19.46
2023-04-23T15:50:27.535Z,18.92
2023-04-23T15:52:58.415Z,18.80
2023-04-23T15:55:26.814Z,18.95
2023-04-23T15:57:55.242Z,18.74
2023-04-23T16:00:25.051Z,18.67
2023-04-23T16:02:53.975Z,18.55
2023-04-23T16:05:22.490Z,18.58
2023-04-23T16:07:51.513Z,18.53
2023-04-23T16:10:20.133Z,18.57
2023-04-23T16:12:48.846Z,18.37
2023-04-23T16:15:17.320Z,18.18
2023-04-23T16:17:47.207Z,17.94
2023-04-23T16:20:15.843Z,17.94
2023-04-23T16:22:44.197Z,17.89
2023-04-23T16:25:12.779Z,17.86
2023-04-23T16:27:41.267Z,17.87
2023-04-23T16:30:10.620Z,17.88
2023-04-23T16:32:40.068Z,17.91
2023-04-23T16:35:10.584Z,17.91
2023-04-23T16:37:39.946Z,17.84
2023-04-23T16:40:10.286Z,17.86
2023-04-23T16:42:39.156Z,17.88
2023-04-23T16:45:08.456Z,17.88
2023-04-23T16:47:36.940Z,17.77
2023-04-23T16:50:05.778Z,17.71
2023-04-23T16:52:35.714Z,17.63
2023-04-23T16:55:05.632Z,17.51
2023-04-23T16:57:35.909Z,17.42
2023-04-23T17:00:06.073Z,17.33
2023-04-23T17:02:34.880Z,17.30
2023-04-23T17:05:03.820Z,17.25
2023-04-23T17:07:32.251Z,17.21
2023-04-23T17:10:02.110Z,17.12
2023-04-23T17:12:30.527Z,17.07
2023-04-23T17:14:58.923Z,17.06
2023-04-23T17:17:27.302Z,16.98
2023-04-23T17:19:55.706Z,16.93
2023-04-23T17:22:24.134Z,16.90
2023-04-23T17:24:52.872Z,16.84
2023-04-23T17:27:23.328Z,16.81
2023-04-23T17:29:51.860Z,16.79
2023-04-23T17:32:20.617Z,16.77
2023-04-23T17:34:56.446Z,16.75
2023-04-23T17:37:32.980Z,16.74
2023-04-23T17:40:03.114Z,16.72
2023-04-23T17:42:32.971Z,16.69
2023-04-23T17:45:01.358Z,16.68
2023-04-23T17:47:29.988Z,16.64
2023-04-23T17:49:58.476Z,16.64
2023-04-23T17:52:27.422Z,16.60
2023-04-23T17:54:56.756Z,16.55
2023-04-23T17:57:25.678Z,16.52
2023-04-23T17:59:55.561Z,16.52
2023-04-23T18:02:24.454Z,16.52
2023-04-23T18:04:52.896Z,16.52
2023-04-23T18:07:21.252Z,16.51
2023-04-23T18:09:49.954Z,16.44
2023-04-23T18:12:18.635Z,16.36
2023-04-23T18:14:47.241Z,16.25
2023-04-23T18:17:17.473Z,16.23
2023-04-23T18:19:45.802Z,16.20
2023-04-23T18:22:14.214Z,16.12
2023-04-23T18:24:42.800Z,16.09
2023-04-23T18:27:11.493Z,15.97
2023-04-23T18:29:39.988Z,15.87
2023-04-23T18:32:08.446Z,15.78
2023-04-23T18:34:41.281Z,15.69
2023-04-23T18:37:12.008Z,15.62
2023-04-23T18:39:41.516Z,15.52
2023-04-23T18:42:10.964Z,15.43
2023-04-23T18:44:39.588Z,15.38
2023-04-23T18:47:08.272Z,15.35
2023-04-23T18:49:47.099Z,15.26
2023-04-23T18:52:16.197Z,15.19
2023-04-23T18:54:44.656Z,15.14
2023-04-23T18:57:13.430Z,15.10
2023-04-23T18:59:42.099Z,15.07
2023-04-23T19:02:14.663Z,15.02
2023-04-23T19:04:49.210Z,15.01
2023-04-23T19:07:17.690Z,14.95
2023-04-23T19:09:46.171Z,14.89
2023-04-23T19:12:14.576Z,14.83
2023-04-23T19:14:42.911Z,14.78
2023-04-23T19:17:11.741Z,14.73
2023-04-23T19:19:40.561Z,14.63
2023-04-23T19:22:10.682Z,14.55
2023-04-23T19:24:39.173Z,14.46
2023-04-23T19:27:07.782Z,14.43
2023-04-23T19:29:36.387Z,14.40
2023-04-23T19:32:04.821Z,14.36
2023-04-23T19:34:33.344Z,14.28
2023-04-23T19:37:02.004Z,14.23
2023-04-23T19:39:31.926Z,14.16
2023-04-23T19:42:02.744Z,14.13
2023-04-23T19:44:31.802Z,14.07
2023-04-23T19:47:01.578Z,14.04
2023-04-23T19:49:31.486Z,13.97
2023-04-23T19:52:00.476Z,13.93
2023-04-23T19:54:28.968Z,13.88
2023-04-23T19:56:58.699Z,13.85
2023-04-23T19:59:27.276Z,13.80
2023-04-23T20:01:56.096Z,13.76
2023-04-23T20:04:24.907Z,13.68
2023-04-23T20:06:53.408Z,13.59
2023-04-23T20:09:24.294Z,13.50
2023-04-23T20:11:53.497Z,13.48
2023-04-23T20:14:23.390Z,13.43
2023-04-23T20:16:51.954Z,13.41
2023-04-23T20:19:20.388Z,13.36
2023-04-23T20:21:48.729Z,13.32
2023-04-23T20:24:17.376Z,13.25
2023-04-23T20:26:45.882Z,13.18
2023-04-23T20:29:14.340Z,13.10
2023-04-23T20:31:48.734Z,13.05
2023-04-23T20:34:17.555Z,12.99
2023-04-23T20:36:47.375Z,12.95
2023-04-23T20:39:16.748Z,12.89
2023-04-23T20:41:46.582Z,12.90
2023-04-23T20:44:15.151Z,12.91
2023-04-23T20:46:46.312Z,12.91
2023-04-23T20:49:15.272Z,12.92
2023-04-23T20:51:43.598Z,12.90
2023-04-23T20:54:12.057Z,12.87
2023-04-23T20:56:40.716Z,12.82
2023-04-23T20:59:09.055Z,12.81
2023-04-23T21:01:38.496Z,12.77
2023-04-23T21:04:08.462Z,12.79
2023-04-23T21:06:36.989Z,12.85
2023-04-23T21:09:05.637Z,12.93
2023-04-23T21:11:34.169Z,13.00
2023-04-23T21:14:02.518Z,13.00
2023-04-23T21:16:30.966Z,12.99
2023-04-23T21:18:59.410Z,12.91
2023-04-23T21:21:29.964Z,12.83
2023-04-23T21:23:59.600Z,12.80
2023-04-23T21:26:28.412Z,12.77
2023-04-23T21:28:57.306Z,12.72
2023-04-23T21:31:39.198Z,12.76
2023-04-23T21:34:07.662Z,12.79
2023-04-23T21:36:37.550Z,12.85
2023-04-23T21:39:06.474Z,12.90
2023-04-23T21:41:35.065Z,12.93
2023-04-23T21:44:03.454Z,12.96
2023-04-23T21:46:32.167Z,12.97
2023-04-23T21:49:00.695Z,12.94
2023-04-23T21:51:29.873Z,12.84
2023-04-23T21:53:59.725Z,12.71
2023-04-23T21:56:28.343Z,12.64
2023-04-23T21:58:56.743Z,12.56
2023-04-23T22:01:25.122Z,12.54
2023-04-23T22:03:53.761Z,12.47
2023-04-23T22:06:23.281Z,12.38
2023-04-23T22:08:52.395Z,12.29
2023-04-23T22:11:22.540Z,12.25
2023-04-23T22:13:50.901Z,12.19
2023-04-23T22:16:28.293Z,12.15
2023-04-23T22:18:58.177Z,12.09
2023-04-23T22:21:26.536Z,12.00
2023-04-23T22:23:54.916Z,11.93
2023-04-23T22:26:24.650Z,11.84
2023-04-23T22:28:53.012Z,11.79
2023-04-23T22:31:21.341Z,11.72
2023-04-23T22:33:49.982Z,11.66
2023-04-23T22:36:18.331Z,11.64
2023-04-23T22:38:46.697Z,11.60
2023-04-23T22:41:15.191Z,11.59
2023-04-23T22:43:44.979Z,11.60
2023-04-23T22:46:13.643Z,11.59
2023-04-23T22:48:44.611Z,11.54
2023-04-23T22:51:13.039Z,11.49
2023-04-23T22:53:41.856Z,11.43
2023-04-23T22:56:10.169Z,11.38
2023-04-23T22:58:38.616Z,11.37
2023-04-23T23:01:08.341Z,11.40
2023-04-23T23:03:37.024Z,11.43
2023-04-23T23:06:06.246Z,11.46
2023-04-23T23:08:34.630Z,11.45
2023-04-23T23:11:03.185Z,11.43
2023-04-23T23:13:32.177Z,11.41
2023-04-23T23:16:05.777Z,11.41
2023-04-23T23:18:35.508Z,11.36
2023-04-23T23:21:04.047Z,11.37
2023-04-23T23:23:32.516Z,11.31
2023-04-23T23:26:00.843Z,11.29
2023-04-23T23:28:29.225Z,11.27
2023-04-23T23:30:57.957Z,11.27
2023-04-23T23:33:27.098Z,11.26
2023-04-23T23:35:57.164Z,11.24
2023-04-23T23:38:25.522Z,11.24
2023-04-23T23:40:54.072Z,11.24
2023-04-23T23:43:22.410Z,11.24
2023-04-23T23:45:50.769Z,11.20
2023-04-23T23:48:19.486Z,11.19
2023-04-23T23:50:47.824Z,11.16
2023-04-23T23:53:17.563Z,11.15
2023-04-23T23:55:45.910Z,11.14
2023-04-23T23:58:14.252Z,11.13
